sensor_id;sensor_type;location;lat;lon;timestamp;temperature;humidity
9998;DHT22;5038;53.064;8.624;2023-05-07T16:41:28;17.40;99.90
9998;DHT22;5038;53.064;8.624;2023-05-07T16:43:56;17.30;99.90
9998;DHT22;5038;53.064;8.624;2023-05-07T16:46:24;17.30;99.90
9998;DHT22;5038;53.064;8.624;2023-05-07T16:48:52;17.30;99.90
9998;DHT22;5038;53.064;8.624;2023-05-07T16:51:20;17.30;99.90
9998;DHT22;5038;53.064;8.624;2023-05-07T16:53:50;17.30;99.90
9998;DHT22;5038;53.064;8.624;2023-05-07T16:56:18;17.30;99.90
9998;DHT22;5038;53.064;8.624;2023-05-07T16:58:48;17.40;99.90
9998;DHT22;5038;53.064;8.624;2023-05-07T17:01:16;17.50;99.90
9998;DHT22;5038;53.064;8.624;2023-05-07T17:03:44;17.80;99.90
9998;DHT22;5038;53.064;8.624;2023-05-07T17:06:13;18.00;99.90
9998;DHT22;5038;53.064;8.624;2023-05-07T17:08:42;18.20;99.90
9998;DHT22;5038;53.064;8.624;2023-05-07T17:11:10;18.50;99.90
9998;DHT22;5038;53.064;8.624;2023-05-07T17:13:38;18.80;99.90
9998;DHT22;5038;53.064;8.624;2023-05-07T17:16:08;18.90;99.90
9998;DHT22;5038;53.064;8.624;2023-05-07T17:18:36;19.00;99.90
9998;DHT22;5038;53.064;8.624;2023-05-07T17:21:04;19.10;99.90
9998;DHT22;5038;53.064;8.624;2023-05-07T17:23:32;19.30;99.90
9998;DHT22;5038;53.064;8.624;2023-05-07T17:26:00;19.40;99.90
9998;DHT22;5038;53.064;8.624;2023-05-07T17:28:29;19.40;99.90
9998;DHT22;5038;53.064;8.624;2023-05-07T17:30:57;19.70;99.90
9998;DHT22;5038;53.064;8.624;2023-05-07T17:33:27;20.20;99.90
9998;DHT22;5038;53.064;8.624;2023-05-07T17:35:55;20.80;99.90
9998;DHT22;5038;53.064;8.624;2023-05-07T17:38:23;21.60;99.90
9998;DHT22;5038;53.064;8.624;2023-05-07T17:40:51;22.30;99.90
9998;DHT22;5038;53.064;8.624;2023-05-07T17:43:19;22.70;99.90
9998;DHT22;5038;53.064;8.624;2023-05-07T17:45:49;23.40;99.90
9998;DHT22;5038;53.064;8.624;2023-05-07T17:48:17;23.70;99.90
9998;DHT22;5038;53.064;8.624;2023-05-07T17:50:47;24.10;99.90
9998;DHT22;5038;53.064;8.624;2023-05-07T17:53:15;24.70;99.90
9998;DHT22;5038;53.064;8.624;2023-05-07T17:55:44;25.40;99.60
9998;DHT22;5038;53.064;8.624;2023-05-07T17:58:12;25.90;98.50
9998;DHT22;5038;53.064;8.624;2023-05-07T18:00:40;26.00;97.60
9998;DHT22;5038;53.064;8.624;2023-05-07T18:03:09;25.00;97.30
9998;DHT22;5038;53.064;8.624;2023-05-07T18:05:38;23.70;97.70
9998;DHT22;5038;53.064;8.624;2023-05-07T18:08:07;22.70;98.10
9998;DHT22;5038;53.064;8.624;2023-05-07T18:10:36;21.90;98.50
9998;DHT22;5038;53.064;8.624;2023-05-07T18:13:04;21.20;98.80
9998;DHT22;5038;53.064;8.624;2023-05-07T18:15:32;20.70;99.00
9998;DHT22;5038;53.064;8.624;2023-05-07T18:18:01;20.30;99.20
9998;DHT22;5038;53.064;8.624;2023-05-07T18:20:29;19.90;99.30
9998;DHT22;5038;53.064;8.624;2023-05-07T18:22:58;19.60;99.40
9998;DHT22;5038;53.064;8.624;2023-05-07T18:25:27;19.30;99.60
9998;DHT22;5038;53.064;8.624;2023-05-07T18:27:56;19.00;99.70
9998;DHT22;5038;53.064;8.624;2023-05-07T18:30:24;18.80;99.90
9998;DHT22;5038;53.064;8.624;2023-05-07T18:32:52;18.60;99.90
9998;DHT22;5038;53.064;8.624;2023-05-07T18:35:20;18.30;99.90
9998;DHT22;5038;53.064;8.624;2023-05-07T18:37:48;18.20;99.90
9998;DHT22;5038;53.064;8.624;2023-05-07T18:40:17;18.00;99.90
9998;DHT22;5038;53.064;8.624;2023-05-07T18:42:48;17.80;99.90
9998;DHT22;5038;53.064;8.624;2023-05-07T18:45:16;17.70;99.90
9998;DHT22;5038;53.064;8.624;2023-05-07T18:47:44;17.50;99.90
9998;DHT22;5038;53.064;8.624;2023-05-07T18:50:13;17.40;99.90
9998;DHT22;5038;53.064;8.624;2023-05-07T18:52:42;17.20;99.90
9998;DHT22;5038;53.064;8.624;2023-05-07T18:55:10;17.10;99.90
9998;DHT22;5038;53.064;8.624;2023-05-07T18:57:39;16.90;99.90
9998;DHT22;5038;53.064;8.624;2023-05-07T19:00:09;16.80;99.90
9998;DHT22;5038;53.064;8.624;2023-05-07T19:02:38;16.70;99.90
9998;DHT22;5038;53.064;8.624;2023-05-07T19:05:07;16.60;99.90
9998;DHT22;5038;53.064;8.624;2023-05-07T19:07:35;16.50;99.90
9998;DHT22;5038;53.064;8.624;2023-05-07T19:10:04;16.40;99.90
9998;DHT22;5038;53.064;8.624;2023-05-07T19:12:32;16.30;99.90
9998;DHT22;5038;53.064;8.624;2023-05-07T19:15:00;16.20;99.90
9998;DHT22;5038;53.064;8.624;2023-05-07T19:17:30;16.10;99.90
9998;DHT22;5038;53.064;8.624;2023-05-07T19:19:58;16.00;99.90
9998;DHT22;5038;53.064;8.624;2023-05-07T19:22:26;15.90;99.90
9998;DHT22;5038;53.064;8.624;2023-05-07T19:24:54;15.80;99.90
9998;DHT22;5038;53.064;8.624;2023-05-07T19:27:22;15.70;99.90
9998;DHT22;5038;53.064;8.624;2023-05-07T19:29:50;15.70;99.90
9998;DHT22;5038;53.064;8.624;2023-05-07T19:32:18;15.60;99.90
9998;DHT22;5038;53.064;8.624;2023-05-07T19:34:49;15.50;99.90
9998;DHT22;5038;53.064;8.624;2023-05-07T19:37:17;15.40;99.90
9998;DHT22;5038;53.064;8.624;2023-05-07T19:39:48;15.30;99.90
9998;DHT22;5038;53.064;8.624;2023-05-07T19:42:16;15.30;99.90
9998;DHT22;5038;53.064;8.624;2023-05-07T19:44:44;15.20;99.90
9998;DHT22;5038;53.064;8.624;2023-05-07T19:47:12;15.10;99.90
9998;DHT22;5038;53.064;8.624;2023-05-07T19:49:41;15.00;99.90
9998;DHT22;5038;53.064;8.624;2023-05-07T19:52:11;15.00;99.90
9998;DHT22;5038;53.064;8.624;2023-05-07T19:54:39;14.90;99.90
9998;DHT22;5038;53.064;8.624;2023-05-07T19:57:07;14.80;99.90
9998;DHT22;5038;53.064;8.624;2023-05-07T19:59:36;14.80;99.90
9998;DHT22;5038;53.064;8.624;2023-05-07T20:02:04;14.70;99.90
9998;DHT22;5038;53.064;8.624;2023-05-07T20:04:33;14.70;99.90
9998;DHT22;5038;53.064;8.624;2023-05-07T20:07:04;14.60;99.90
9998;DHT22;5038;53.064;8.624;2023-05-07T20:09:33;14.60;99.90
9998;DHT22;5038;53.064;8.624;2023-05-07T20:12:01;14.50;99.90
9998;DHT22;5038;53.064;8.624;2023-05-07T20:14:29;14.50;99.90
9998;DHT22;5038;53.064;8.624;2023-05-07T20:16:58;14.40;99.90
9998;DHT22;5038;53.064;8.624;2023-05-07T20:19:26;14.30;99.90
9998;DHT22;5038;53.064;8.624;2023-05-07T20:21:54;14.30;99.90
9998;DHT22;5038;53.064;8.624;2023-05-07T20:24:22;14.30;99.90
9998;DHT22;5038;53.064;8.624;2023-05-07T20:26:52;14.20;99.90
9998;DHT22;5038;53.064;8.624;2023-05-07T20:29:21;14.20;99.90
9998;DHT22;5038;53.064;8.624;2023-05-07T20:31:49;14.10;99.90
9998;DHT22;5038;53.064;8.624;2023-05-07T20:34:17;14.10;99.90
9998;DHT22;5038;53.064;8.624;2023-05-07T20:36:46;14.00;99.90
9998;DHT22;5038;53.064;8.624;2023-05-07T20:39:14;14.00;99.90
9998;DHT22;5038;53.064;8.624;2023-05-07T20:41:42;13.90;99.90
9998;DHT22;5038;53.064;8.624;2023-05-07T20:44:12;13.90;99.90
9998;DHT22;5038;53.064;8.624;2023-05-07T20:46:40;13.90;99.90
9998;DHT22;5038;53.064;8.624;2023-05-07T20:49:08;13.80;99.90
9998;DHT22;5038;53.064;8.624;2023-05-07T20:51:36;13.70;99.90
9998;DHT22;5038;53.064;8.624;2023-05-07T20:54:04;13.70;99.90
9998;DHT22;5038;53.064;8.624;2023-05-07T20:56:34;13.60;99.90
9998;DHT22;5038;53.064;8.624;2023-05-07T20:59:02;13.60;99.90
9998;DHT22;5038;53.064;8.624;2023-05-07T21:01:31;13.60;99.90
9998;DHT22;5038;53.064;8.624;2023-05-07T21:04:00;13.50;99.90
9998;DHT22;5038;53.064;8.624;2023-05-07T21:06:28;13.50;99.90
9998;DHT22;5038;53.064;8.624;2023-05-07T21:08:56;13.40;99.90
9998;DHT22;5038;53.064;8.624;2023-05-07T21:11:24;13.40;99.90
9998;DHT22;5038;53.064;8.624;2023-05-07T21:13:52;13.40;99.90
9998;DHT22;5038;53.064;8.624;2023-05-07T21:16:20;13.30;99.90
9998;DHT22;5038;53.064;8.624;2023-05-07T21:18:50;13.30;99.90
9998;DHT22;5038;53.064;8.624;2023-05-07T21:21:18;13.20;99.90
9998;DHT22;5038;53.064;8.624;2023-05-07T21:23:46;13.20;99.90
9998;DHT22;5038;53.064;8.624;2023-05-07T21:26:17;13.20;99.90
9998;DHT22;5038;53.064;8.624;2023-05-07T21:28:45;13.20;99.90
9998;DHT22;5038;53.064;8.624;2023-05-07T21:31:13;13.10;99.90
9998;DHT22;5038;53.064;8.624;2023-05-07T21:33:42;13.10;99.90
9998;DHT22;5038;53.064;8.624;2023-05-07T21:36:12;13.10;99.90
9998;DHT22;5038;53.064;8.624;2023-05-07T21:38:40;13.00;99.90
9998;DHT22;5038;53.064;8.624;2023-05-07T21:41:08;13.00;99.90
9998;DHT22;5038;53.064;8.624;2023-05-07T21:43:37;12.90;99.90
9998;DHT22;5038;53.064;8.624;2023-05-07T21:46:06;12.90;99.90
9998;DHT22;5038;53.064;8.624;2023-05-07T21:48:34;12.90;99.90
9998;DHT22;5038;53.064;8.624;2023-05-07T21:51:03;12.80;99.90
9998;DHT22;5038;53.064;8.624;2023-05-07T21:53:34;12.80;99.90
9998;DHT22;5038;53.064;8.624;2023-05-07T21:56:02;12.80;99.90
9998;DHT22;5038;53.064;8.624;2023-05-07T21:58:31;12.80;99.90
9998;DHT22;5038;53.064;8.624;2023-05-07T22:00:59;12.70;99.90
9998;DHT22;5038;53.064;8.624;2023-05-07T22:03:27;12.70;99.90
9998;DHT22;5038;53.064;8.624;2023-05-07T22:05:55;12.60;99.90
9998;DHT22;5038;53.064;8.624;2023-05-07T22:08:23;12.60;99.90
9998;DHT22;5038;53.064;8.624;2023-05-07T22:10:53;12.60;99.90
9998;DHT22;5038;53.064;8.624;2023-05-07T22:13:21;12.60;99.90
9998;DHT22;5038;53.064;8.624;2023-05-07T22:15:49;12.60;99.90
9998;DHT22;5038;53.064;8.624;2023-05-07T22:18:24;12.50;99.90
9998;DHT22;5038;53.064;8.624;2023-05-07T22:20:52;12.50;99.90
9998;DHT22;5038;53.064;8.624;2023-05-07T22:23:20;12.50;99.90
9998;DHT22;5038;53.064;8.624;2023-05-07T22:25:48;12.50;99.90
9998;DHT22;5038;53.064;8.624;2023-05-07T22:28:18;12.50;99.90
9998;DHT22;5038;53.064;8.624;2023-05-07T22:30:47;12.40;99.90
9998;DHT22;5038;53.064;8.624;2023-05-07T22:33:15;12.40;99.90
9998;DHT22;5038;53.064;8.624;2023-05-07T22:35:43;12.40;99.90
9998;DHT22;5038;53.064;8.624;2023-05-07T22:38:11;12.30;99.90
9998;DHT22;5038;53.064;8.624;2023-05-07T22:40:39;12.30;99.90
9998;DHT22;5038;53.064;8.624;2023-05-07T22:43:07;12.30;99.90
9998;DHT22;5038;53.064;8.624;2023-05-07T22:45:36;12.20;99.90
9998;DHT22;5038;53.064;8.624;2023-05-07T22:48:05;12.20;99.90
9998;DHT22;5038;53.064;8.624;2023-05-07T22:50:35;12.20;99.90
9998;DHT22;5038;53.064;8.624;2023-05-07T22:53:04;12.20;99.90
9998;DHT22;5038;53.064;8.624;2023-05-07T22:55:32;12.10;99.90
9998;DHT22;5038;53.064;8.624;2023-05-07T22:58:00;12.10;99.90
9998;DHT22;5038;53.064;8.624;2023-05-07T23:00:28;12.10;99.90
9998;DHT22;5038;53.064;8.624;2023-05-07T23:02:58;12.10;99.90
9998;DHT22;5038;53.064;8.624;2023-05-07T23:05:26;12.00;99.90
9998;DHT22;5038;53.064;8.624;2023-05-07T23:07:54;12.00;99.90
9998;DHT22;5038;53.064;8.624;2023-05-07T23:10:22;11.90;99.90
9998;DHT22;5038;53.064;8.624;2023-05-07T23:12:51;11.90;99.90
9998;DHT22;5038;53.064;8.624;2023-05-07T23:15:19;11.90;99.90
9998;DHT22;5038;53.064;8.624;2023-05-07T23:17:47;11.90;99.90
9998;DHT22;5038;53.064;8.624;2023-05-07T23:20:17;11.80;99.90
9998;DHT22;5038;53.064;8.624;2023-05-07T23:22:45;11.80;99.90
9998;DHT22;5038;53.064;8.624;2023-05-07T23:25:13;11.80;99.90
9998;DHT22;5038;53.064;8.624;2023-05-07T23:27:41;11.80;99.90
9998;DHT22;5038;53.064;8.624;2023-05-07T23:30:10;11.70;99.90
9998;DHT22;5038;53.064;8.624;2023-05-07T23:32:39;11.70;99.90
9998;DHT22;5038;53.064;8.624;2023-05-07T23:35:08;11.70;99.90
9998;DHT22;5038;53.064;8.624;2023-05-07T23:37:37;11.70;99.90
9998;DHT22;5038;53.064;8.624;2023-05-07T23:40:07;11.60;99.90
9998;DHT22;5038;53.064;8.624;2023-05-07T23:42:35;11.60;99.90
9998;DHT22;5038;53.064;8.624;2023-05-07T23:45:04;11.50;99.90
9998;DHT22;5038;53.064;8.624;2023-05-07T23:47:32;11.50;99.90
9998;DHT22;5038;53.064;8.624;2023-05-07T23:50:00;11.50;99.90
9998;DHT22;5038;53.064;8.624;2023-05-07T23:52:28;11.50;99.90
9998;DHT22;5038;53.064;8.624;2023-05-07T23:54:58;11.40;99.90
9998;DHT22;5038;53.064;8.624;2023-05-07T23:57:26;11.40;99.90
9998;DHT22;5038;53.064;8.624;2023-05-07T23:59:54;11.40;99.90
